Time;durP1;ratioP1;P1;durP2;ratioP2;P2;SDS_P1;SDS_P2;PMS_P1;PMS_P2;Temp;Humidity;BMP_temperature;BMP_pressure;BME280_temperature;BME280_humidity;BME280_pressure;Samples;Min_cycle;Max_cycle;Signal;HPM_P1;HPM_P2
2023/07/16 00:03:28;;;;;;;3.05;1.80;;;;;;;21.44;93.23;99789.31;10327538;28;20072;-57
2023/07/16 00:08:30;;;;;;;1.73;1.35;;;;;;;21.44;94.48;99778.47;10320598;28;20099;-57
2023/07/16 00:13:31;;;;;;;2.20;1.55;;;;;;;21.38;95.52;99738.72;10330510;28;20528;-57
2023/07/16 00:18:33;;;;;;;2.53;1.90;;;;;;;21.33;95.74;99765.53;10327213;28;20057;-57
2023/07/16 00:23:34;;;;;;;2.83;2.30;;;;;;;21.37;95.33;99767.63;10324292;28;20054;-58
2023/07/16 00:28:36;;;;;;;7.30;2.38;;;;;;;21.27;95.76;99748.28;10315726;28;20054;-58
2023/07/16 00:33:37;;;;;;;3.40;1.38;;;;;;;21.21;94.01;99756.38;10323443;28;20045;-57
2023/07/16 00:38:40;;;;;;;3.47;1.48;;;;;;;21.16;93.39;99782.16;10329234;28;20132;-58
2023/07/16 00:43:41;;;;;;;2.10;1.90;;;;;;;21.17;92.94;99767.59;10321376;28;20185;-59
2023/07/16 00:48:43;;;;;;;4.78;1.83;;;;;;;21.15;92.50;99785.06;10324202;28;20780;-58
2023/07/16 00:53:46;;;;;;;1.50;1.30;;;;;;;21.09;92.92;99813.81;10324318;28;20049;-59
2023/07/16 00:58:48;;;;;;;1.90;1.50;;;;;;;20.95;92.29;99810.19;10317142;28;20132;-58
2023/07/16 01:03:50;;;;;;;3.42;1.67;;;;;;;20.90;92.23;99793.75;10318087;28;20061;-58
2023/07/16 01:08:58;;;;;;;2.05;1.25;;;;;;;20.93;91.68;99779.00;10323647;28;20310;-59
2023/07/16 01:14:00;;;;;;;1.83;1.13;;;;;;;20.88;91.79;99776.06;10325707;28;20409;-59
2023/07/16 01:19:02;;;;;;;1.25;1.15;;;;;;;20.89;90.67;99788.53;10323879;28;20058;-58
2023/07/16 01:24:25;;;;;;;1.63;1.10;;;;;;;20.90;90.80;99809.97;10323076;28;20057;-59
2023/07/16 01:29:35;;;;;;;2.15;1.23;;;;;;;20.88;90.58;99822.03;10312664;28;20045;-58
2023/07/16 01:34:38;;;;;;;2.92;1.17;;;;;;;20.76;91.30;99821.78;10326895;28;20164;-59
2023/07/16 01:39:39;;;;;;;2.97;0.93;;;;;;;20.75;90.70;99833.66;10317309;28;20906;-57
2023/07/16 01:44:41;;;;;;;2.63;1.52;;;;;;;20.76;90.54;99846.97;10320124;28;20484;-58
2023/07/16 01:49:43;;;;;;;1.50;0.90;;;;;;;20.67;89.98;99840.03;10318973;28;20058;-58
2023/07/16 01:54:44;;;;;;;3.72;1.08;;;;;;;20.72;88.92;99872.72;10325547;28;20064;-58
2023/07/16 01:59:46;;;;;;;2.85;1.02;;;;;;;20.56;89.41;99868.44;10322173;28;20472;-57
2023/07/16 02:04:48;;;;;;;2.53;1.20;;;;;;;20.59;88.77;99872.63;10322574;28;20638;-56
2023/07/16 02:09:50;;;;;;;2.42;1.20;;;;;;;20.59;88.17;99867.22;10322012;28;20050;-58
2023/07/16 02:14:51;;;;;;;2.45;1.10;;;;;;;20.52;88.72;99874.44;10328952;28;20049;-57
2023/07/16 02:19:53;;;;;;;2.22;1.10;;;;;;;20.43;88.72;99879.16;10322048;28;20054;-58
2023/07/16 02:24:54;;;;;;;1.67;0.90;;;;;;;20.38;87.80;99874.34;10321700;28;20116;-57
2023/07/16 02:29:56;;;;;;;3.03;1.15;;;;;;;20.30;88.03;99875.31;10321294;28;20733;-58
2023/07/16 02:34:57;;;;;;;2.05;1.23;;;;;;;20.32;87.16;99883.25;10320627;28;20054;-57
2023/07/16 02:39:59;;;;;;;4.63;1.30;;;;;;;20.26;86.95;99902.94;10323955;28;20151;-57
2023/07/16 02:45:00;;;;;;;3.58;1.10;;;;;;;20.21;87.24;99918.91;10322626;28;20936;-60
2023/07/16 02:50:02;;;;;;;3.00;1.40;;;;;;;20.18;87.15;99919.31;10323543;28;20133;-57
2023/07/16 02:55:04;;;;;;;3.22;1.40;;;;;;;20.14;87.03;99922.38;10321287;28;20054;-57
2023/07/16 03:00:06;;;;;;;3.13;1.13;;;;;;;20.05;87.21;99926.25;10319797;28;20653;-57
2023/07/16 03:05:08;;;;;;;2.85;1.38;;;;;;;19.96;86.72;99932.81;10319141;28;20058;-57
2023/07/16 03:10:10;;;;;;;2.03;1.10;;;;;;;20.06;87.32;99937.91;10316012;28;20042;-58
2023/07/16 03:15:11;;;;;;;3.63;1.13;;;;;;;20.13;87.14;99934.22;10318150;28;20127;-56
2023/07/16 03:20:13;;;;;;;1.77;1.20;;;;;;;20.10;87.18;99940.03;10318033;28;20137;-57
2023/07/16 03:25:14;;;;;;;2.85;1.35;;;;;;;20.07;86.88;99944.97;10322384;28;20046;-57
2023/07/16 03:30:16;;;;;;;1.80;1.27;;;;;;;20.03;86.77;99955.31;10319464;28;20583;-57
2023/07/16 03:35:18;;;;;;;4.78;1.30;;;;;;;19.97;86.64;99966.91;10319927;28;20077;-59
2023/07/16 03:40:24;;;;;;;4.25;1.30;;;;;;;19.94;87.16;99975.41;10334311;28;20056;-57
2023/07/16 03:45:25;;;;;;;3.60;1.38;;;;;;;19.97;86.66;99983.13;10316497;28;20052;-57
2023/07/16 03:50:27;;;;;;;2.72;1.33;;;;;;;19.89;85.64;99975.13;10316907;28;20135;-57
2023/07/16 03:55:30;;;;;;;2.78;1.77;;;;;;;19.95;85.14;99995.97;10319333;28;20520;-57
2023/07/16 04:00:32;;;;;;;3.55;1.38;;;;;;;19.90;85.30;99993.00;10320718;28;20164;-58
2023/07/16 04:05:34;;;;;;;4.67;1.47;;;;;;;19.89;84.88;99996.72;10320981;28;20053;-59
2023/07/16 04:10:35;;;;;;;3.85;1.70;;;;;;;19.80;84.33;99995.16;10322647;28;20128;-60
2023/07/16 04:15:37;;;;;;;6.55;2.28;;;;;;;19.81;83.82;99996.84;10319786;28;20057;-57
2023/07/16 04:20:38;;;;;;;6.00;2.05;;;;;;;19.74;83.73;99999.44;10321966;28;20057;-59
2023/07/16 04:25:40;;;;;;;3.63;1.52;;;;;;;19.59;84.16;99996.75;10326477;28;20065;-56
2023/07/16 04:30:42;;;;;;;3.60;1.42;;;;;;;19.63;84.19;100011.56;10319457;28;20100;-56
2023/07/16 04:35:43;;;;;;;2.33;1.48;;;;;;;19.56;84.19;100018.72;10320716;28;20056;-56
2023/07/16 04:40:45;;;;;;;4.47;1.50;;;;;;;19.58;84.26;100030.19;10314621;28;20482;-56
2023/07/16 04:45:47;;;;;;;3.50;1.33;;;;;;;19.57;83.58;100021.25;10303741;28;20046;-56
2023/07/16 04:50:48;;;;;;;3.03;1.48;;;;;;;19.53;83.28;100019.97;10318395;28;20522;-56
2023/07/16 04:55:49;;;;;;;2.83;1.35;;;;;;;19.52;82.68;100022.84;10315067;28;20596;-57
2023/07/16 05:00:51;;;;;;;2.45;1.45;;;;;;;19.55;82.68;100044.06;10321070;28;20053;-56
2023/07/16 05:05:52;;;;;;;6.75;1.85;;;;;;;19.36;82.52;100029.28;10320822;28;20653;-56
2023/07/16 05:10:54;;;;;;;4.13;2.42;;;;;;;19.23;82.34;100019.13;10324778;28;20198;-56
2023/07/16 05:15:55;;;;;;;3.72;1.80;;;;;;;19.56;81.58;100068.19;10318082;28;20057;-55
2023/07/16 05:20:57;;;;;;;3.13;1.52;;;;;;;19.53;81.06;100065.00;10319892;28;20056;-56
2023/07/16 05:25:58;;;;;;;2.42;1.50;;;;;;;19.69;80.40;100078.31;10317774;28;20057;-55
2023/07/16 05:31:01;;;;;;;4.65;1.98;;;;;;;19.69;79.46;100091.81;10319388;28;20604;-56
2023/07/16 05:36:02;;;;;;;4.28;1.92;;;;;;;19.71;79.03;100097.88;10315682;28;20858;-56
2023/07/16 05:41:04;;;;;;;4.05;1.73;;;;;;;19.69;78.92;100108.00;10314623;28;20065;-56
2023/07/16 05:46:06;;;;;;;3.13;1.95;;;;;;;19.69;79.04;100104.47;10324781;28;20050;-55
2023/07/16 05:51:07;;;;;;;3.35;1.83;;;;;;;19.71;78.10;100105.97;10316995;28;20053;-56
2023/07/16 05:56:09;;;;;;;4.13;2.03;;;;;;;19.70;77.00;100112.38;10323168;28;20057;-56
2023/07/16 06:01:10;;;;;;;5.18;1.95;;;;;;;19.63;78.13;100105.22;10315816;28;20139;-56
2023/07/16 06:06:12;;;;;;;5.25;1.60;;;;;;;19.66;77.12;100113.78;10318556;28;20049;-57
2023/07/16 06:11:13;;;;;;;4.32;1.80;;;;;;;19.68;76.63;100103.66;10316363;28;20058;-56
2023/07/16 06:16:15;;;;;;;5.18;2.00;;;;;;;19.71;75.59;100095.16;10317670;28;20058;-57
2023/07/16 06:21:17;;;;;;;4.32;2.03;;;;;;;19.86;73.27;100121.34;10321631;28;20092;-57
2023/07/16 06:26:19;;;;;;;3.85;1.80;;;;;;;19.88;72.84;100113.91;10315245;28;20053;-56
2023/07/16 06:31:21;;;;;;;4.05;2.08;;;;;;;19.93;72.17;100119.56;10318669;28;20041;-55
2023/07/16 06:36:24;;;;;;;;;;;;;;;19.99;70.67;100123.41;10316414;28;20053;-56
2023/07/16 06:41:26;;;;;;;5.57;2.10;;;;;;;20.09;68.69;100127.47;10306885;28;19997;-55
2023/07/16 06:46:27;;;;;;;4.15;2.13;;;;;;;20.19;68.56;100132.59;10303973;28;20176;-55
2023/07/16 06:51:31;;;;;;;8.48;2.80;;;;;;;20.27;68.09;100131.63;10301730;28;20123;-56
2023/07/16 06:56:32;;;;;;;4.32;2.00;;;;;;;20.38;66.83;100139.25;10300489;28;20115;-57
2023/07/16 07:01:34;;;;;;;6.72;2.15;;;;;;;20.57;66.17;100135.09;10311484;28;20057;-56
2023/07/16 07:06:36;;;;;;;6.97;2.42;;;;;;;20.69;66.00;100138.16;10306738;28;20057;-56
2023/07/16 07:11:37;;;;;;;8.32;2.53;;;;;;;20.63;63.34;100137.03;10301085;28;20076;-56
2023/07/16 07:16:44;;;;;;;5.15;2.83;;;;;;;20.74;64.72;100135.69;10304954;28;20042;-45
2023/07/16 07:21:45;;;;;;;5.28;2.20;;;;;;;20.91;63.43;100136.28;10300649;28;20168;-47
2023/07/16 07:26:47;;;;;;;8.40;2.78;;;;;;;21.02;61.57;100140.34;10307166;28;20095;-46
2023/07/16 07:31:48;;;;;;;4.53;2.30;;;;;;;21.15;60.89;100143.16;10308667;28;20057;-46
2023/07/16 07:36:50;;;;;;;5.57;2.53;;;;;;;21.15;58.35;100148.56;10308374;28;20207;-46
2023/07/16 07:41:51;;;;;;;5.60;2.30;;;;;;;21.09;58.12;100149.34;10311998;28;20054;-45
2023/07/16 07:46:53;;;;;;;4.57;2.72;;;;;;;21.16;59.09;100154.81;10309361;28;20520;-45
2023/07/16 07:51:55;;;;;;;4.25;2.25;;;;;;;21.30;58.24;100153.03;10307821;28;20054;-46
2023/07/16 07:56:56;;;;;;;4.38;2.08;;;;;;;21.45;57.80;100151.09;10308982;28;20054;-47
2023/07/16 08:01:58;;;;;;;6.00;2.10;;;;;;;21.53;56.99;100150.13;10312922;28;20084;-46
2023/07/16 08:06:59;;;;;;;3.65;1.90;;;;;;;21.61;56.48;100155.38;10308294;28;20053;-45
2023/07/16 08:12:01;;;;;;;6.03;2.08;;;;;;;21.77;54.56;100151.53;10319101;28;20054;-46
2023/07/16 08:17:03;;;;;;;5.50;2.22;;;;;;;21.66;52.67;100143.94;10304404;28;20073;-46
2023/07/16 08:22:04;;;;;;;4.85;2.30;;;;;;;21.78;53.66;100157.78;10307408;28;20060;-47
2023/07/16 08:27:06;;;;;;;5.07;2.15;;;;;;;21.83;52.02;100156.16;10320263;28;20053;-47
2023/07/16 08:32:07;;;;;;;4.07;1.88;;;;;;;21.89;52.93;100152.63;10313279;28;20053;-47
2023/07/16 08:37:09;;;;;;;6.28;2.15;;;;;;;21.96;50.26;100165.38;10313635;28;20164;-45
2023/07/16 08:42:11;;;;;;;3.08;1.85;;;;;;;22.02;50.67;100153.72;10315312;28;20734;-46
2023/07/16 08:47:12;;;;;;;4.40;2.30;;;;;;;22.28;49.35;100149.47;10305985;28;20139;-46
2023/07/16 08:52:14;;;;;;;3.95;1.80;;;;;;;22.19;49.44;100160.50;10308312;28;20173;-46
2023/07/16 08:57:16;;;;;;;4.40;2.33;;;;;;;22.05;48.83;100172.31;10316272;28;20061;-50
2023/07/16 09:02:19;;;;;;;5.32;1.95;;;;;;;22.15;48.68;100175.47;10301638;28;20182;-47
2023/07/16 09:07:20;;;;;;;6.15;2.78;;;;;;;22.17;48.76;100178.84;10289642;28;20426;-46
2023/07/16 09:12:24;;;;;;;;;;;;;;;22.17;47.34;100178.84;10305483;28;20213;-46
2023/07/16 09:17:26;;;;;;;3.75;1.85;;;;;;;22.32;48.51;100186.00;10301103;28;19991;-46
2023/07/16 09:22:29;;;;;;;5.63;2.15;;;;;;;22.38;46.52;100202.31;10301981;28;20053;-45
2023/07/16 09:27:31;;;;;;;5.38;1.85;;;;;;;22.54;45.63;100179.41;10303088;28;20111;-52
2023/07/16 09:32:39;;;;;;;6.47;2.00;;;;;;;22.53;46.19;100176.91;10304467;28;20057;-48
2023/07/16 09:37:42;;;;;;;4.25;1.85;;;;;;;22.81;46.48;100190.34;10308352;28;20050;-49
2023/07/16 09:42:43;;;;;;;3.87;1.90;;;;;;;22.62;46.95;100153.16;10305076;28;20530;-48
2023/07/16 09:47:45;;;;;;;2.67;1.70;;;;;;;22.79;47.21;100181.59;10305879;28;20770;-47
2023/07/16 09:52:47;;;;;;;6.00;2.20;;;;;;;22.77;44.93;100183.66;10295015;28;20057;-44
2023/07/16 09:57:50;;;;;;;4.47;2.10;;;;;;;22.66;45.88;100186.97;10303969;28;20105;-44
2023/07/16 10:02:52;;;;;;;4.82;1.85;;;;;;;22.83;45.54;100185.53;10308868;28;20917;-46
2023/07/16 10:08:00;;;;;;;2.23;1.33;;;;;;;22.82;44.93;100181.16;10306190;28;20059;-44
2023/07/16 10:13:02;;;;;;;3.38;2.17;;;;;;;23.11;44.89;100166.41;10312574;28;20053;-43
2023/07/16 10:18:03;;;;;;;3.83;1.60;;;;;;;23.25;42.64;100180.78;10307428;28;20709;-43
2023/07/16 10:23:13;;;;;;;5.10;2.03;;;;;;;23.46;43.59;100187.06;10300662;28;20061;-45
2023/07/16 10:28:14;;;;;;;4.82;2.15;;;;;;;23.61;41.70;100182.25;10312329;28;20060;-44
2023/07/16 10:33:16;;;;;;;3.70;1.95;;;;;;;23.67;41.41;100183.28;10308301;28;20176;-43
2023/07/16 10:38:17;;;;;;;4.25;2.22;;;;;;;23.84;42.86;100172.81;10306930;28;20650;-44
2023/07/16 10:43:20;;;;;;;2.90;1.55;;;;;;;24.11;42.39;100167.31;10308660;28;20054;-44
2023/07/16 10:48:24;;;;;;;;;;;;;;;24.25;42.35;100171.66;10309217;28;20077;-45
2023/07/16 10:53:26;;;;;;;5.72;2.42;;;;;;;24.26;40.66;100180.63;10309633;28;20935;-44
2023/07/16 10:58:27;;;;;;;3.25;1.50;;;;;;;24.39;40.06;100169.69;10296222;28;20160;-44
2023/07/16 11:03:29;;;;;;;4.00;1.90;;;;;;;24.29;39.60;100181.06;10304166;28;20049;-45
2023/07/16 11:08:30;;;;;;;6.63;3.22;;;;;;;24.06;40.52;100181.53;10299014;28;20122;-44
2023/07/16 11:13:34;;;;;;;3.22;1.65;;;;;;;24.06;41.07;100175.28;10304447;28;20093;-45
2023/07/16 11:18:36;;;;;;;3.80;1.90;;;;;;;23.92;41.71;100169.88;10304156;28;20050;-45
2023/07/16 11:23:39;;;;;;;3.05;1.92;;;;;;;23.90;42.16;100166.56;10302175;28;20049;-44
2023/07/16 11:28:41;;;;;;;5.20;1.87;;;;;;;23.96;39.38;100173.00;10298538;28;20050;-44
2023/07/16 11:33:46;;;;;;;3.55;1.80;;;;;;;23.96;40.02;100159.41;10302906;28;20077;-44
2023/07/16 11:38:48;;;;;;;7.32;2.70;;;;;;;24.20;38.62;100160.59;10303521;28;20056;-57
2023/07/16 11:43:51;;;;;;;3.80;2.10;;;;;;;24.23;40.34;100160.16;10308436;28;20045;-57
2023/07/16 11:48:53;;;;;;;;;;;;;;;24.44;37.77;100158.16;10302878;28;21002;-58
2023/07/16 11:53:56;;;;;;;3.30;2.40;;;;;;;24.48;37.74;100159.41;10307614;28;20164;-58
2023/07/16 11:58:58;;;;;;;3.53;1.90;;;;;;;24.57;38.47;100152.66;10309929;28;20061;-57
2023/07/16 12:03:59;;;;;;;4.75;2.00;;;;;;;24.63;38.23;100148.28;10305967;28;20053;-59
2023/07/16 12:09:01;;;;;;;3.30;1.80;;;;;;;24.59;37.83;100131.56;10307081;28;20206;-57
2023/07/16 12:14:02;;;;;;;4.20;1.70;;;;;;;24.86;38.25;100147.69;10308999;28;20535;-57
2023/07/16 12:19:05;;;;;;;3.80;1.60;;;;;;;25.10;37.07;100146.06;10310026;28;20045;-57
2023/07/16 12:24:06;;;;;;;;;;;;;;;25.39;37.32;100136.41;10307645;28;20042;-57
2023/07/16 12:29:08;;;;;;;4.78;1.80;;;;;;;25.66;37.45;100136.13;10309415;28;19921;-58
2023/07/16 12:34:10;;;;;;;3.30;2.08;;;;;;;25.75;36.72;100123.88;10304799;28;20057;-57
2023/07/16 12:39:11;;;;;;;5.30;1.92;;;;;;;25.63;34.51;100125.69;10307783;28;20080;-57
2023/07/16 12:44:13;;;;;;;3.83;1.98;;;;;;;25.75;34.24;100123.88;10298151;28;20057;-57
2023/07/16 12:49:15;;;;;;;4.57;2.10;;;;;;;25.75;34.47;100134.75;10300065;28;20752;-58
2023/07/16 12:54:16;;;;;;;2.77;1.70;;;;;;;25.67;34.60;100126.91;10294262;28;20046;-57
2023/07/16 12:59:18;;;;;;;5.35;2.67;;;;;;;25.61;34.04;100141.41;10300393;28;20065;-58
2023/07/16 13:04:19;;;;;;;3.53;2.55;;;;;;;25.65;34.37;100118.09;10293309;28;20061;-58
2023/07/16 13:09:22;;;;;;;4.45;2.22;;;;;;;25.90;33.87;100128.13;10302552;28;20137;-57
2023/07/16 13:14:24;;;;;;;3.97;2.97;;;;;;;26.04;32.59;100115.19;10303313;28;20139;-57
2023/07/16 13:19:25;;;;;;;4.80;2.60;;;;;;;26.19;33.20;100128.41;10303930;28;20192;-57
2023/07/16 13:24:27;;;;;;;5.90;2.63;;;;;;;25.96;33.01;100132.66;10301066;28;20176;-57
2023/07/16 13:29:28;;;;;;;4.90;2.88;;;;;;;25.94;33.96;100126.56;10304252;28;20800;-57
2023/07/16 13:34:30;;;;;;;5.13;2.75;;;;;;;25.91;32.82;100124.31;10306428;28;20343;-57
2023/07/16 13:39:31;;;;;;;4.13;2.70;;;;;;;25.75;33.60;100123.88;10304494;28;20050;-57
2023/07/16 13:44:33;;;;;;;4.45;2.90;;;;;;;25.70;34.18;100142.81;10298467;28;20060;-57
2023/07/16 13:49:34;;;;;;;6.60;3.00;;;;;;;25.52;33.90;100134.59;10302449;28;20076;-58
2023/07/16 13:54:36;;;;;;;5.45;2.72;;;;;;;25.47;34.00;100126.28;10303192;28;20053;-58
2023/07/16 13:59:42;;;;;;;4.82;2.78;;;;;;;25.49;34.13;100129.59;10300202;28;20046;-57
2023/07/16 14:04:43;;;;;;;3.47;2.47;;;;;;;25.46;34.49;100132.75;10302974;28;20525;-57
2023/07/16 14:09:45;;;;;;;5.82;3.60;;;;;;;25.68;33.90;100128.56;10301433;28;20054;-58
2023/07/16 14:14:47;;;;;;;4.70;3.27;;;;;;;25.54;34.52;100116.13;10299204;28;20120;-57
2023/07/16 14:19:49;;;;;;;3.88;2.72;;;;;;;25.62;34.31;100124.00;10306507;28;20062;-57
2023/07/16 14:24:51;;;;;;;6.73;3.70;;;;;;;25.70;34.64;100123.72;10301199;28;20073;-57
2023/07/16 14:29:52;;;;;;;5.20;3.08;;;;;;;25.62;34.67;100123.19;10310207;28;20069;-56
2023/07/16 14:35:07;;;;;;;6.20;3.40;;;;;;;25.58;34.93;100114.59;10305143;28;20054;-57
2023/07/16 14:40:22;;;;;;;5.00;2.92;;;;;;;25.56;35.05;100135.81;10308632;28;20057;-56
2023/07/16 14:45:24;;;;;;;4.97;3.00;;;;;;;25.50;34.16;100120.38;10303912;28;20063;-58
2023/07/16 14:50:26;;;;;;;4.55;2.95;;;;;;;25.49;34.49;100130.44;10301664;28;20440;-58
2023/07/16 14:55:28;;;;;;;3.85;3.20;;;;;;;25.36;33.90;100125.13;10301964;28;20068;-58
2023/07/16 15:00:29;;;;;;;5.10;3.40;;;;;;;25.31;34.55;100116.78;10300110;28;20053;-58
2023/07/16 15:05:31;;;;;;;4.55;3.78;;;;;;;25.29;34.65;100119.69;10293036;28;20584;-58
2023/07/16 15:10:33;;;;;;;6.28;3.88;;;;;;;25.20;33.71;100121.84;10296499;28;20050;-58
2023/07/16 15:15:34;;;;;;;5.45;3.58;;;;;;;25.12;34.28;100119.44;10289866;28;20068;-58
2023/07/16 15:20:36;;;;;;;10.35;3.95;;;;;;;25.00;34.43;100113.03;10289811;28;20475;-58
2023/07/16 15:25:40;;;;;;;5.70;2.88;;;;;;;24.98;34.34;100113.28;10291339;28;20046;-58
2023/07/16 15:30:41;;;;;;;5.93;3.65;;;;;;;25.06;34.87;100110.25;10292457;28;20142;-58
2023/07/16 15:35:43;;;;;;;4.70;3.45;;;;;;;24.99;33.92;100092.31;10303906;28;20096;-58
2023/07/16 15:40:44;;;;;;;6.50;3.95;;;;;;;25.05;34.35;100103.13;10303104;28;22585;-57
2023/07/16 15:45:47;;;;;;;7.18;4.40;;;;;;;25.00;34.44;100092.09;10303337;28;20053;-61
2023/07/16 15:50:56;;;;;;;5.32;3.55;;;;;;;25.09;34.47;100100.81;10302311;28;20100;-60
2023/07/16 15:55:58;;;;;;;6.45;4.03;;;;;;;25.08;33.87;100104.59;10291250;28;20642;-58
2023/07/16 16:00:59;;;;;;;5.05;4.55;;;;;;;25.05;34.60;100105.84;10292097;28;20065;-54
2023/07/16 16:06:01;;;;;;;4.68;3.97;;;;;;;25.12;35.55;100099.53;10297405;28;20057;-51
2023/07/16 16:11:03;;;;;;;5.50;3.22;;;;;;;25.08;33.79;100095.59;10295176;28;20771;-51
2023/07/16 16:16:04;;;;;;;5.32;3.90;;;;;;;25.12;34.42;100086.75;10303315;28;20683;-52
2023/07/16 16:21:08;;;;;;;5.93;3.50;;;;;;;25.09;33.57;100097.28;10298085;28;20140;-52
2023/07/16 16:26:10;;;;;;;7.25;3.58;;;;;;;25.09;33.90;100091.81;10299796;28;20053;-52
2023/07/16 16:31:11;;;;;;;5.30;3.30;;;;;;;25.02;34.75;100070.09;10303617;28;20200;-52
2023/07/16 16:36:13;;;;;;;5.65;3.95;;;;;;;25.11;34.68;100078.81;10306810;28;20061;-51
2023/07/16 16:41:15;;;;;;;13.03;9.90;;;;;;;25.11;34.21;100089.69;10307120;28;20055;-54
2023/07/16 16:46:17;;;;;;;4.88;3.88;;;;;;;25.13;34.16;100087.56;10308245;28;20084;-51
2023/07/16 16:51:19;;;;;;;4.60;3.15;;;;;;;25.18;34.40;100085.03;10307745;28;20061;-51
2023/07/16 16:56:21;;;;;;;6.17;4.80;;;;;;;25.15;34.38;100080.03;10307413;28;20050;-51
2023/07/16 17:01:22;;;;;;;5.50;4.28;;;;;;;25.17;34.26;100077.91;10309616;28;20158;-52
2023/07/16 17:06:24;;;;;;;7.00;4.75;;;;;;;25.14;34.66;100091.97;10311323;28;20538;-51
2023/07/16 17:11:25;;;;;;;9.02;4.40;;;;;;;25.10;34.43;100090.75;10308109;28;20052;-51
2023/07/16 17:16:27;;;;;;;6.53;4.20;;;;;;;25.06;34.61;100085.75;10310495;28;20643;-51
2023/07/16 17:21:29;;;;;;;11.07;5.90;;;;;;;25.04;33.92;100079.72;10308526;28;20740;-52
2023/07/16 17:26:31;;;;;;;7.23;4.90;;;;;;;25.09;34.47;100086.38;10309754;28;20122;-52
2023/07/16 17:31:33;;;;;;;6.85;4.55;;;;;;;25.08;34.05;100092.88;10307813;28;20614;-52
2023/07/16 17:36:35;;;;;;;6.45;5.43;;;;;;;25.10;34.47;100093.47;10308097;28;20161;-51
2023/07/16 17:41:37;;;;;;;7.78;4.40;;;;;;;25.09;34.93;100091.81;10308157;28;20050;-51
2023/07/16 17:46:39;;;;;;;6.90;4.68;;;;;;;25.08;35.29;100090.97;10306248;28;20050;-51
2023/07/16 17:51:41;;;;;;;5.38;3.78;;;;;;;24.96;35.51;100076.44;10306358;28;20096;-56
2023/07/16 17:56:43;;;;;;;7.10;4.22;;;;;;;24.97;35.10;100084.38;10302942;28;20420;-52
2023/07/16 18:01:46;;;;;;;8.30;6.38;;;;;;;24.93;34.98;100099.47;10307122;28;20550;-52
2023/07/16 18:06:48;;;;;;;;;;;;;;;24.88;35.33;100099.31;10305031;28;21551;-53
2023/07/16 18:11:49;;;;;;;6.40;4.00;;;;;;;24.82;36.29;100100.22;10307470;28;20831;-52
2023/07/16 18:16:51;;;;;;;4.80;3.78;;;;;;;24.79;36.46;100103.38;10303277;28;20061;-51
2023/07/16 18:21:53;;;;;;;6.10;3.70;;;;;;;24.66;36.76;100087.97;10306357;28;20057;-51
2023/07/16 18:27:15;;;;;;;5.75;3.47;;;;;;;24.73;35.85;100101.53;10301828;28;20057;-52
2023/07/16 18:32:16;;;;;;;4.88;4.38;;;;;;;24.65;36.44;100098.03;10303921;28;20057;-52
2023/07/16 18:37:20;;;;;;;5.97;3.85;;;;;;;24.64;36.60;100103.69;10304250;28;20057;-52
2023/07/16 18:42:27;;;;;;;5.22;3.33;;;;;;;24.57;36.18;100106.41;10307216;28;20049;-50
2023/07/16 18:47:29;;;;;;;6.53;3.30;;;;;;;24.50;36.39;100111.03;10304409;28;20396;-53
2023/07/16 18:52:30;;;;;;;5.80;3.63;;;;;;;24.26;36.90;100089.03;10305523;28;20049;-52
2023/07/16 18:57:34;;;;;;;5.68;3.90;;;;;;;24.39;36.62;100114.47;10300756;28;20184;-52
2023/07/16 19:02:35;;;;;;;;;;;;;;;24.38;37.08;100124.53;10305665;28;20599;-55
2023/07/16 19:07:37;;;;;;;4.95;3.80;;;;;;;24.32;36.65;100115.34;10302450;28;19961;-52
2023/07/16 19:12:39;;;;;;;4.47;3.78;;;;;;;24.27;37.38;100126.03;10302756;28;20085;-51
2023/07/16 19:17:41;;;;;;;5.15;3.78;;;;;;;24.28;38.08;100133.16;10306061;28;20046;-53
2023/07/16 19:22:42;;;;;;;6.60;4.57;;;;;;;24.26;38.05;100132.53;10304383;28;20068;-53
2023/07/16 19:27:46;;;;;;;5.53;4.70;;;;;;;24.21;38.03;100134.25;10301436;28;20050;-52
2023/07/16 19:32:48;;;;;;;7.53;4.10;;;;;;;24.17;38.03;100144.72;10303381;28;20049;-52
2023/07/16 19:37:50;;;;;;;6.50;3.83;;;;;;;24.10;37.79;100141.19;10301458;28;20283;-53
2023/07/16 19:42:51;;;;;;;8.98;4.05;;;;;;;23.98;37.98;100144.56;10299942;28;20054;-53
2023/07/16 19:47:53;;;;;;;6.03;4.30;;;;;;;23.90;37.97;100155.69;10299258;28;20490;-52
2023/07/16 19:52:54;;;;;;;6.93;4.40;;;;;;;23.89;38.76;100158.63;10300556;28;20056;-52
2023/07/16 19:57:56;;;;;;;6.93;4.47;;;;;;;23.79;38.68;100150.88;10300839;28;20778;-52
2023/07/16 20:02:57;;;;;;;6.97;4.00;;;;;;;23.76;39.21;100170.31;10302434;28;21273;-54
2023/07/16 20:07:59;;;;;;;4.80;3.97;;;;;;;23.68;39.41;100167.84;10306048;28;20235;-52
2023/07/16 20:13:01;;;;;;;6.50;4.25;;;;;;;23.65;40.24;100178.06;10308173;28;20308;-52
2023/07/16 20:18:06;;;;;;;6.28;4.43;;;;;;;23.60;39.75;100183.31;10309304;28;20187;-52
2023/07/16 20:23:08;;;;;;;5.70;4.65;;;;;;;23.64;40.10;100179.13;10307112;28;20054;-52
2023/07/16 20:28:16;;;;;;;5.97;3.70;;;;;;;23.60;40.44;100186.03;10304082;28;20046;-53
2023/07/16 20:33:18;;;;;;;11.98;4.88;;;;;;;23.56;40.60;100184.78;10303580;28;20188;-58
2023/07/16 20:38:19;;;;;;;5.10;4.45;;;;;;;23.51;40.17;100184.56;10310044;28;20058;-53
2023/07/16 20:43:21;;;;;;;5.47;4.05;;;;;;;23.46;40.61;100187.06;10300763;28;20117;-53
2023/07/16 20:48:24;;;;;;;6.70;4.50;;;;;;;23.44;41.45;100183.75;10291413;28;20108;-53
2023/07/16 20:53:25;;;;;;;6.53;4.57;;;;;;;23.41;41.29;100184.16;10308196;28;21680;-52
2023/07/16 20:58:27;;;;;;;6.22;3.90;;;;;;;23.37;42.29;100194.59;10306261;28;23459;-53
2023/07/16 21:03:30;;;;;;;5.32;4.07;;;;;;;23.34;41.61;100186.03;10307825;28;20621;-54
2023/07/16 21:08:32;;;;;;;6.45;4.25;;;;;;;23.28;41.03;100180.41;10303727;28;20066;-52
2023/07/16 21:13:33;;;;;;;6.60;4.38;;;;;;;23.27;41.31;100181.44;10306850;28;20053;-53
2023/07/16 21:18:35;;;;;;;5.03;4.10;;;;;;;23.19;41.47;100181.63;10308131;28;20636;-53
2023/07/16 21:23:36;;;;;;;4.03;3.20;;;;;;;23.20;41.84;100193.34;10311344;28;20054;-53
2023/07/16 21:28:38;;;;;;;5.97;4.60;;;;;;;23.17;41.85;100193.78;10320278;28;20056;-53
2023/07/16 21:33:43;;;;;;;5.60;3.63;;;;;;;23.09;42.23;100192.94;10334286;28;20417;-53
2023/07/16 21:38:45;;;;;;;7.55;4.10;;;;;;;23.08;43.51;100196.63;10327208;28;20128;-53
2023/07/16 21:43:47;;;;;;;5.80;4.28;;;;;;;23.04;43.70;100205.41;10325756;28;20084;-53
2023/07/16 21:48:48;;;;;;;4.72;3.85;;;;;;;23.04;43.96;100208.13;10325166;28;20127;-53
2023/07/16 21:53:50;;;;;;;5.47;4.45;;;;;;;23.02;43.92;100207.50;10321226;28;20053;-53
2023/07/16 21:58:51;;;;;;;7.18;4.78;;;;;;;22.99;43.90;100213.34;10321155;28;20054;-54
2023/07/16 22:03:53;;;;;;;5.53;3.80;;;;;;;22.94;44.43;100217.50;10323223;28;20524;-53
2023/07/16 22:08:54;;;;;;;7.18;4.40;;;;;;;22.87;44.54;100216.66;10325250;28;20057;-53
2023/07/16 22:13:56;;;;;;;5.25;4.45;;;;;;;22.87;44.59;100221.25;10321836;28;20574;-53
2023/07/16 22:18:57;;;;;;;6.43;4.35;;;;;;;22.74;45.08;100201.19;10316836;28;20050;-52
2023/07/16 22:23:59;;;;;;;4.95;4.20;;;;;;;22.77;45.23;100217.06;10321983;28;20558;-53
2023/07/16 22:29:01;;;;;;;7.00;4.20;;;;;;;22.72;45.40;100219.53;10318576;28;20068;-53
2023/07/16 22:34:03;;;;;;;6.53;3.88;;;;;;;22.69;45.56;100214.50;10325384;28;20515;-56
2023/07/16 22:39:04;;;;;;;8.05;4.43;;;;;;;22.67;45.92;100211.19;10324318;28;20049;-53
2023/07/16 22:44:05;;;;;;;6.97;3.83;;;;;;;22.65;45.57;100218.66;10317963;28;20616;-52
2023/07/16 22:49:07;;;;;;;7.25;4.28;;;;;;;22.52;45.42;100222.19;10318882;28;20390;-53
2023/07/16 22:54:08;;;;;;;6.38;4.65;;;;;;;22.40;46.40;100216.50;10322197;28;20520;-53
2023/07/16 22:59:10;;;;;;;4.47;3.95;;;;;;;22.49;46.47;100214.47;10302637;28;20065;-53
2023/07/16 23:04:11;;;;;;;6.20;4.18;;;;;;;22.50;45.65;100221.53;10317937;28;20560;-56
2023/07/16 23:09:13;;;;;;;6.65;4.30;;;;;;;22.48;46.12;100229.03;10328005;28;20307;-54
2023/07/16 23:14:15;;;;;;;6.47;4.25;;;;;;;22.08;46.24;100158.34;10323824;28;20049;-53